Time;durP1;ratioP1;P1;durP2;ratioP2;P2;SDS_P1;SDS_P2;PMS_P1;PMS_P2;Temp;Humidity;BMP_temperature;BMP_pressure;BME280_temperature;BME280_humidity;BME280_pressure;Samples;Min_cycle;Max_cycle;Signal;HPM_P1;HPM_P2
2022/04/10 00:01:06;;;;;;;4.25;3.00;;;;;;;2.26;85.14;100755.66;5009914;28;20091;-70
2022/04/10 00:03:31;;;;;;;5.97;3.20;;;;;;;2.18;85.23;100748.28;4998342;28;20498;-70
2022/04/10 00:05:57;;;;;;;6.40;2.92;;;;;;;2.09;85.52;100748.84;5003724;28;20065;-70
2022/04/10 00:08:22;;;;;;;6.40;3.15;;;;;;;2.04;86.74;100746.50;5002588;28;20497;-70
2022/04/10 00:10:47;;;;;;;6.75;3.40;;;;;;;2.02;86.26;100750.13;5006090;28;20038;-70
2022/04/10 00:13:13;;;;;;;3.90;2.50;;;;;;;2.01;85.91;100758.91;5006481;28;20042;-70
2022/04/10 00:15:39;;;;;;;4.57;2.85;;;;;;;1.89;87.19;100753.47;5005343;28;20036;-70
2022/04/10 00:18:04;;;;;;;3.83;2.90;;;;;;;1.82;87.64;100757.38;5003848;28;20027;-70
2022/04/10 00:20:31;;;;;;;3.80;3.03;;;;;;;1.89;86.88;100760.47;5006615;28;20037;-70
2022/04/10 00:23:00;;;;;;;3.63;2.30;;;;;;;1.88;86.91;100764.00;4986712;28;20033;-70
2022/04/10 00:25:27;;;;;;;4.32;2.60;;;;;;;1.92;86.64;100760.28;5006019;28;20375;-70
2022/04/10 00:27:52;;;;;;;7.25;3.65;;;;;;;2.01;87.57;100761.50;5004017;28;20438;-70
2022/04/10 00:30:18;;;;;;;6.07;3.08;;;;;;;2.11;87.05;100760.03;4989142;28;20042;-70
2022/04/10 00:32:44;;;;;;;5.45;3.42;;;;;;;2.15;87.20;100764.13;5006076;28;20049;-70
2022/04/10 00:35:12;;;;;;;5.07;3.08;;;;;;;2.18;86.78;100763.13;5007362;28;20430;-70
2022/04/10 00:37:39;;;;;;;5.53;3.40;;;;;;;2.19;86.58;100759.56;5005803;28;20038;-70
2022/04/10 00:40:08;;;;;;;5.10;3.22;;;;;;;2.17;86.89;100764.03;5006669;28;20564;-71
2022/04/10 00:42:35;;;;;;;7.88;3.88;;;;;;;2.15;86.69;100763.31;5001542;28;20165;-70
2022/04/10 00:45:03;;;;;;;4.57;2.80;;;;;;;2.08;86.48;100757.59;5006464;28;20030;-70
2022/04/10 00:47:28;;;;;;;3.67;2.35;;;;;;;2.01;86.22;100751.09;4984778;28;20218;-70
2022/04/10 00:49:58;;;;;;;4.35;2.83;;;;;;;1.97;86.38;100760.00;5007317;28;20030;-70
2022/04/10 00:52:25;;;;;;;3.85;2.42;;;;;;;1.88;86.19;100762.25;4988058;28;20042;-70
2022/04/10 00:54:52;;;;;;;3.97;2.42;;;;;;;1.78;86.49;100758.47;5003464;28;20117;-70
2022/04/10 00:57:19;;;;;;;3.20;2.60;;;;;;;1.70;86.46;100763.31;4988449;28;20030;-70
2022/04/10 00:59:46;;;;;;;3.55;2.85;;;;;;;1.63;86.48;100767.19;4989874;28;20029;-70
2022/04/10 01:02:12;;;;;;;6.75;3.38;;;;;;;1.61;86.38;100759.47;5003922;28;20064;-70
2022/04/10 01:04:40;;;;;;;5.55;3.40;;;;;;;1.60;86.57;100763.00;4987965;28;20052;-70
2022/04/10 01:07:07;;;;;;;7.07;3.08;;;;;;;1.56;86.46;100763.25;5006272;28;20095;-70
2022/04/10 01:09:33;;;;;;;5.90;3.00;;;;;;;1.51;86.41;100771.34;4987784;28;20573;-70
2022/04/10 01:12:00;;;;;;;5.78;3.40;;;;;;;1.47;86.58;100770.66;4990058;28;20375;-70
2022/04/10 01:14:26;;;;;;;4.03;2.83;;;;;;;1.43;86.47;100779.59;5005567;28;20034;-70
2022/04/10 01:16:53;;;;;;;4.80;2.75;;;;;;;1.35;86.68;100776.56;5005585;28;20522;-70
2022/04/10 01:19:21;;;;;;;5.25;3.03;;;;;;;1.29;86.77;100769.13;4988800;28;20038;-70
2022/04/10 01:21:50;;;;;;;6.55;3.80;;;;;;;1.26;86.97;100764.94;5004055;28;20045;-70
2022/04/10 01:24:16;;;;;;;6.22;3.22;;;;;;;1.21;87.32;100766.94;5006062;28;20034;-70
2022/04/10 01:26:43;;;;;;;6.90;3.92;;;;;;;1.17;87.40;100770.66;5005829;28;20185;-70
2022/04/10 01:29:10;;;;;;;4.60;2.95;;;;;;;1.10;87.50;100769.31;5000971;28;20064;-70
2022/04/10 01:31:38;;;;;;;5.63;2.63;;;;;;;1.02;87.41;100768.88;5004592;28;20041;-70
2022/04/10 01:34:06;;;;;;;5.18;3.60;;;;;;;0.93;87.80;100770.25;4988356;28;20073;-70
2022/04/10 01:36:34;;;;;;;4.90;3.20;;;;;;;0.91;87.84;100772.09;5004740;28;20398;-70
2022/04/10 01:39:02;;;;;;;4.70;2.85;;;;;;;0.88;87.95;100772.22;4988490;28;20030;-70
2022/04/10 01:41:30;;;;;;;4.28;2.55;;;;;;;0.79;87.80;100771.00;5005025;28;20037;-69
2022/04/10 01:43:58;;;;;;;4.32;2.70;;;;;;;0.70;87.91;100771.47;5006232;28;20038;-70
2022/04/10 01:46:27;;;;;;;4.18;2.80;;;;;;;0.68;87.93;100775.94;5004201;28;20041;-70
2022/04/10 01:48:53;;;;;;;6.40;4.13;;;;;;;0.67;87.80;100776.84;5003792;28;20096;-69
2022/04/10 01:51:19;;;;;;;5.60;3.67;;;;;;;0.63;88.10;100777.94;5005233;28;20096;-70
2022/04/10 01:53:46;;;;;;;3.67;2.70;;;;;;;0.57;87.96;100773.91;5005766;28;20038;-70
2022/04/10 01:56:12;;;;;;;3.83;2.60;;;;;;;0.53;88.19;100771.56;5005041;28;20038;-70
2022/04/10 01:58:41;;;;;;;4.43;2.53;;;;;;;0.53;88.27;100771.56;5002564;28;20161;-70
2022/04/10 02:01:10;;;;;;;4.10;2.55;;;;;;;0.48;88.15;100774.41;5004096;28;20128;-70
2022/04/10 02:03:37;;;;;;;3.70;2.50;;;;;;;0.45;88.27;100773.69;5003485;28;20177;-70
2022/04/10 02:06:08;;;;;;;3.65;2.55;;;;;;;0.42;88.13;100775.53;5008879;28;20066;-70
2022/04/10 02:08:42;;;;;;;4.80;3.03;;;;;;;0.39;88.28;100774.88;4993159;28;20394;-70
2022/04/10 02:11:11;;;;;;;4.55;3.00;;;;;;;0.32;88.42;100782.16;5009987;28;20129;-70
2022/04/10 02:13:38;;;;;;;5.30;3.60;;;;;;;0.30;88.48;100785.75;4992628;28;20050;-70
2022/04/10 02:16:06;;;;;;;4.82;3.20;;;;;;;0.22;88.53;100780.97;4992883;28;20367;-70
2022/04/10 02:18:32;;;;;;;8.90;4.38;;;;;;;0.19;88.56;100781.09;4991383;28;20041;-70
2022/04/10 02:20:58;;;;;;;5.72;3.47;;;;;;;0.15;88.83;100782.19;5009004;28;20034;-70
2022/04/10 02:23:25;;;;;;;5.35;3.33;;;;;;;0.12;88.90;100790.13;4990863;28;20049;-70
2022/04/10 02:25:52;;;;;;;7.82;4.30;;;;;;;0.13;89.36;100784.03;4991690;28;20041;-70
2022/04/10 02:28:17;;;;;;;4.65;3.40;;;;;;;0.10;89.52;100787.63;4993329;28;20041;-70
2022/04/10 02:30:45;;;;;;;4.55;3.40;;;;;;;0.05;90.07;100788.75;5009961;28;20026;-70
2022/04/10 02:33:11;;;;;;;6.03;3.30;;;;;;;0.01;90.19;100788.09;5010156;28;20041;-70
2022/04/10 02:35:37;;;;;;;4.93;3.08;;;;;;;0.01;89.84;100782.06;5007041;28;20053;-70
2022/04/10 02:38:03;;;;;;;6.88;3.78;;;;;;;-0.01;90.23;100795.13;5010086;28;20457;-70
2022/04/10 02:40:29;;;;;;;4.88;3.55;;;;;;;0.04;90.46;100787.09;5007954;28;20064;-70
2022/04/10 02:42:55;;;;;;;7.65;3.85;;;;;;;0.03;90.06;100785.44;5007608;28;20087;-70
2022/04/10 02:45:21;;;;;;;5.35;3.33;;;;;;;0.04;89.88;100782.72;5010499;28;20112;-70
2022/04/10 02:47:47;;;;;;;3.55;2.80;;;;;;;0.04;89.87;100781.91;5012863;28;20080;-70
2022/04/10 02:50:13;;;;;;;4.70;3.03;;;;;;;-0.01;89.74;100795.94;5008784;28;20502;-70
2022/04/10 02:52:45;;;;;;;4.28;2.30;;;;;;;-0.06;89.81;100791.91;4991875;28;20052;-70
2022/04/10 02:55:11;;;;;;;5.20;2.90;;;;;;;-0.06;90.31;100797.94;5009423;28;20034;-70
2022/04/10 02:57:38;;;;;;;3.35;2.55;;;;;;;-0.10;90.31;100801.63;4990573;28;20041;-70
2022/04/10 03:00:05;;;;;;;3.38;2.53;;;;;;;-0.15;90.09;100802.78;5007697;28;20100;-71
2022/04/10 03:02:32;;;;;;;2.80;2.30;;;;;;;-0.22;90.14;100805.66;4987674;28;20049;-70
2022/04/10 03:04:58;;;;;;;4.00;2.60;;;;;;;-0.26;90.13;100805.91;5003021;28;20029;-70
2022/04/10 03:07:24;;;;;;;3.70;2.70;;;;;;;-0.31;90.07;100803.53;5007007;28;20034;-70
2022/04/10 03:09:51;;;;;;;6.93;4.50;;;;;;;-0.31;90.17;100802.69;5006181;28;20038;-70
2022/04/10 03:12:16;;;;;;;6.22;3.55;;;;;;;-0.31;90.04;100805.28;5007144;28;20040;-70
2022/04/10 03:14:43;;;;;;;4.78;3.25;;;;;;;-0.35;90.26;100812.41;4991285;28;20034;-70
2022/04/10 03:17:10;;;;;;;5.20;3.55;;;;;;;-0.40;90.29;100810.94;4991639;28;20510;-70
2022/04/10 03:19:36;;;;;;;5.22;3.17;;;;;;;-0.41;90.24;100812.69;4990054;28;20153;-70
2022/04/10 03:22:02;;;;;;;6.13;3.88;;;;;;;-0.45;90.30;100818.97;4991926;28;20033;-70
2022/04/10 03:24:29;;;;;;;6.05;3.75;;;;;;;-0.48;90.23;100825.16;4987434;28;20398;-70
2022/04/10 03:26:55;;;;;;;8.82;5.20;;;;;;;-0.47;90.44;100815.59;5008421;28;20038;-70
2022/04/10 03:29:21;;;;;;;6.55;4.72;;;;;;;-0.47;90.69;100819.03;4990109;28;20041;-70
2022/04/10 03:31:47;;;;;;;6.05;4.20;;;;;;;-0.52;91.08;100821.00;5006835;28;20161;-70
2022/04/10 03:34:14;;;;;;;6.38;4.28;;;;;;;-0.56;91.09;100823.81;5004767;28;20044;-70
2022/04/10 03:36:40;;;;;;;5.85;3.55;;;;;;;-0.58;91.05;100830.84;5007308;28;20629;-70
2022/04/10 03:39:06;;;;;;;6.47;4.20;;;;;;;-0.63;91.33;100838.00;5009017;28;20042;-70
2022/04/10 03:41:35;;;;;;;7.38;4.00;;;;;;;-0.63;91.46;100832.81;5006194;28;20041;-70
2022/04/10 03:44:03;;;;;;;5.93;4.00;;;;;;;-0.58;91.29;100829.09;5007361;28;20433;-70
2022/04/10 03:46:28;;;;;;;5.05;3.70;;;;;;;-0.56;90.98;100834.22;5006368;28;20034;-70
2022/04/10 03:48:54;;;;;;;4.90;2.97;;;;;;;-0.49;91.16;100839.03;5006055;28;20041;-70
2022/04/10 03:51:19;;;;;;;5.78;3.60;;;;;;;-0.39;91.05;100843.78;5007419;28;20042;-70
2022/04/10 03:53:44;;;;;;;6.30;3.85;;;;;;;-0.31;91.40;100850.31;5006486;28;20126;-70
2022/04/10 03:56:09;;;;;;;5.38;4.18;;;;;;;-0.32;91.71;100851.22;5006814;28;20065;-70
2022/04/10 03:58:35;;;;;;;5.30;3.60;;;;;;;-0.36;91.69;100854.88;5007119;28;21530;-70
2022/04/10 04:01:00;;;;;;;5.20;3.40;;;;;;;-0.41;91.49;100861.22;5007676;28;20042;-69
2022/04/10 04:03:25;;;;;;;4.15;3.28;;;;;;;-0.49;91.63;100862.41;5003917;28;20095;-70
2022/04/10 04:05:51;;;;;;;4.38;3.33;;;;;;;-0.48;92.11;100864.13;5006689;28;20048;-70
2022/04/10 04:08:16;;;;;;;4.93;3.10;;;;;;;-0.43;91.56;100859.53;5005484;28;21550;-70
2022/04/10 04:10:42;;;;;;;4.00;2.95;;;;;;;-0.40;91.56;100860.31;5005804;28;20526;-70
2022/04/10 04:13:07;;;;;;;5.45;3.30;;;;;;;-0.29;91.55;100868.41;5006937;28;20049;-70
2022/04/10 04:15:34;;;;;;;4.82;3.55;;;;;;;-0.21;91.33;100876.69;5005937;28;20622;-70
2022/04/10 04:17:59;;;;;;;6.03;3.60;;;;;;;-0.12;91.43;100875.38;5007309;28;20037;-70
2022/04/10 04:20:25;;;;;;;9.02;5.38;;;;;;;-0.11;92.73;100875.31;5005617;28;20042;-70
2022/04/10 04:22:50;;;;;;;8.20;4.35;;;;;;;-0.09;92.15;100883.06;5005352;28;20637;-70
2022/04/10 04:25:16;;;;;;;7.07;4.78;;;;;;;-0.10;92.50;100881.34;5007092;28;20062;-70
2022/04/10 04:27:41;;;;;;;6.95;4.63;;;;;;;-0.09;92.07;100885.66;5004368;28;20040;-70
2022/04/10 04:30:07;;;;;;;5.13;3.95;;;;;;;-0.14;91.68;100885.00;5001574;28;20041;-71
2022/04/10 04:32:33;;;;;;;5.63;4.20;;;;;;;-0.24;91.69;100890.69;5004764;28;20430;-70
2022/04/10 04:34:58;;;;;;;5.38;3.53;;;;;;;-0.27;91.76;100885.59;5007338;28;20046;-70
2022/04/10 04:37:23;;;;;;;4.90;3.40;;;;;;;-0.34;91.41;100885.97;5006977;28;20101;-70
2022/04/10 04:39:49;;;;;;;4.38;3.15;;;;;;;-0.41;91.59;100888.03;5007178;28;20044;-70
2022/04/10 04:42:14;;;;;;;5.13;3.38;;;;;;;-0.41;91.73;100889.78;5006057;28;20034;-70
2022/04/10 04:44:39;;;;;;;3.97;2.80;;;;;;;-0.37;91.63;100888.72;5006849;28;20056;-70
2022/04/10 04:47:05;;;;;;;5.32;3.35;;;;;;;-0.31;91.69;100896.22;5004810;28;20401;-70
2022/04/10 04:49:31;;;;;;;6.78;3.67;;;;;;;-0.23;91.71;100899.31;5003951;28;20042;-70
2022/04/10 04:51:56;;;;;;;9.00;3.90;;;;;;;-0.16;91.48;100895.50;5007881;28;20122;-70
2022/04/10 04:54:21;;;;;;;6.38;4.40;;;;;;;-0.10;91.77;100907.34;4989662;28;20046;-70
2022/04/10 04:56:47;;;;;;;7.25;4.50;;;;;;;-0.04;91.99;100909.66;5005165;28;20034;-70
2022/04/10 04:59:14;;;;;;;5.22;3.90;;;;;;;0.04;91.81;100906.69;5007517;28;20037;-70
2022/04/10 05:01:41;;;;;;;4.72;3.70;;;;;;;0.15;91.77;100910.44;5002477;28;20538;-70
2022/04/10 05:04:07;;;;;;;5.18;3.80;;;;;;;0.27;91.70;100923.75;5007112;28;20033;-70
2022/04/10 05:06:32;;;;;;;5.70;4.03;;;;;;;0.36;91.56;100918.94;5005735;28;20041;-70
2022/04/10 05:08:57;;;;;;;5.82;3.90;;;;;;;0.49;91.38;100926.97;4991786;28;20101;-70
2022/04/10 05:11:23;;;;;;;4.13;3.00;;;;;;;0.59;91.42;100929.94;5007038;28;20152;-70
2022/04/10 05:13:48;;;;;;;5.03;3.22;;;;;;;0.69;91.38;100935.53;5004645;28;20073;-70
2022/04/10 05:16:13;;;;;;;4.95;3.10;;;;;;;0.79;91.34;100941.97;5006291;28;20064;-70
2022/04/10 05:18:38;;;;;;;3.42;2.72;;;;;;;0.92;91.35;100937.78;5006195;28;20387;-70
2022/04/10 05:21:04;;;;;;;5.25;2.95;;;;;;;1.09;91.22;100946.47;5005934;28;20061;-70
2022/04/10 05:23:29;;;;;;;3.80;2.80;;;;;;;1.26;90.98;100954.22;5004720;28;20414;-70
2022/04/10 05:25:55;;;;;;;4.20;3.25;;;;;;;1.46;90.73;100961.84;5006024;28;20109;-70
2022/04/10 05:28:20;;;;;;;3.70;2.70;;;;;;;1.67;90.43;100959.00;5002177;28;20042;-70
2022/04/10 05:30:46;;;;;;;4.78;3.08;;;;;;;1.78;89.99;100964.44;5005413;28;20554;-70
2022/04/10 05:33:12;;;;;;;4.30;2.75;;;;;;;1.82;89.85;100970.34;5006140;28;20344;-71
2022/04/10 05:35:37;;;;;;;3.75;2.80;;;;;;;1.82;89.66;100971.19;5005491;28;20402;-70
2022/04/10 05:38:03;;;;;;;3.88;2.90;;;;;;;1.89;89.62;100974.28;5005624;28;20040;-70
2022/04/10 05:40:29;;;;;;;3.25;2.60;;;;;;;1.94;89.53;100982.69;5006092;28;20058;-70
2022/04/10 05:42:54;;;;;;;3.25;2.70;;;;;;;2.00;89.47;100978.91;5009850;28;20069;-70
2022/04/10 05:45:19;;;;;;;4.82;2.88;;;;;;;2.06;89.28;100991.63;5009428;28;20257;-70
2022/04/10 05:47:45;;;;;;;4.63;3.00;;;;;;;2.16;89.18;100997.16;5006073;28;20082;-70
2022/04/10 05:50:11;;;;;;;5.10;3.65;;;;;;;2.22;88.96;100989.84;5008831;28;20033;-71
2022/04/10 05:52:41;;;;;;;4.35;3.40;;;;;;;2.30;88.99;101003.28;5008222;28;20038;-70
2022/04/10 05:55:08;;;;;;;4.27;2.90;;;;;;;2.43;88.95;101005.19;5009261;28;20042;-70
2022/04/10 05:57:34;;;;;;;6.40;3.67;;;;;;;2.49;88.78;101004.84;5008360;28;20292;-70
2022/04/10 06:00:00;;;;;;;4.95;3.38;;;;;;;2.54;88.65;101006.25;5007284;28;20374;-70
2022/04/10 06:02:25;;;;;;;7.47;4.82;;;;;;;2.55;88.50;100997.50;5008446;28;20046;-70
2022/04/10 06:04:50;;;;;;;5.13;3.70;;;;;;;2.58;88.31;101000.88;5010295;28;20396;-70
2022/04/10 06:07:16;;;;;;;4.43;3.67;;;;;;;2.64;88.16;101005.72;5009529;28;20060;-70
2022/04/10 06:09:42;;;;;;;4.80;3.13;;;;;;;2.72;88.06;101008.75;5009012;28;20568;-70
2022/04/10 06:12:08;;;;;;;5.22;3.33;;;;;;;2.75;87.83;101003.34;5009324;28;20038;-71
2022/04/10 06:14:33;;;;;;;5.68;4.32;;;;;;;2.78;87.68;101007.53;5008649;28;20375;-70
2022/04/10 06:16:58;;;;;;;5.90;4.03;;;;;;;2.80;87.62;101003.91;5010403;28;20030;-70
2022/04/10 06:19:24;;;;;;;5.68;3.83;;;;;;;2.83;87.09;101015.94;5010900;28;20034;-70
2022/04/10 06:21:49;;;;;;;6.35;3.85;;;;;;;2.84;87.22;101015.03;5011641;28;20052;-70
2022/04/10 06:24:14;;;;;;;6.03;4.00;;;;;;;2.87;87.08;101018.28;4993338;28;20064;-70
2022/04/10 06:26:41;;;;;;;5.05;3.58;;;;;;;2.91;86.91;101019.78;5006512;28;20537;-70
2022/04/10 06:29:06;;;;;;;7.22;4.40;;;;;;;2.94;87.00;101018.75;5006464;28;20124;-70
2022/04/10 06:31:31;;;;;;;6.72;4.10;;;;;;;3.01;86.66;101027.91;5007230;28;20487;-70
2022/04/10 06:33:57;;;;;;;5.38;3.63;;;;;;;3.09;86.52;101028.28;4992625;28;20562;-70
2022/04/10 06:36:23;;;;;;;6.50;4.35;;;;;;;3.17;86.35;101030.44;5007369;28;20046;-70
2022/04/10 06:38:49;;;;;;;5.28;4.05;;;;;;;3.25;85.91;101037.84;4991455;28;20027;-70
2022/04/10 06:41:15;;;;;;;6.43;4.38;;;;;;;3.31;85.67;101033.09;5009024;28;20045;-70
2022/04/10 06:43:40;;;;;;;7.80;5.20;;;;;;;3.39;85.37;101043.91;4991770;28;20115;-70
2022/04/10 06:46:06;;;;;;;7.70;4.93;;;;;;;3.44;85.22;101037.56;5009505;28;20116;-71
2022/04/10 06:48:31;;;;;;;9.20;5.68;;;;;;;3.48;84.81;101034.69;5007023;28;20031;-70
2022/04/10 06:50:57;;;;;;;6.43;4.75;;;;;;;3.50;84.76;101040.63;5000430;28;20034;-70
2022/04/10 06:53:22;;;;;;;5.78;4.05;;;;;;;3.56;84.55;101032.44;5007639;28;20046;-70
2022/04/10 06:55:47;;;;;;;5.80;3.65;;;;;;;3.65;84.42;101038.00;5008378;28;20117;-70
2022/04/10 06:58:13;;;;;;;5.95;4.30;;;;;;;3.71;84.51;101037.66;4989282;28;20498;-70
2022/04/10 07:00:40;;;;;;;8.15;5.28;;;;;;;3.70;84.23;101041.22;5006514;28;20140;-70
2022/04/10 07:03:06;;;;;;;11.77;5.78;;;;;;;3.63;83.79;101034.69;5005065;28;20046;-71
2022/04/10 07:05:31;;;;;;;9.27;5.55;;;;;;;3.72;83.87;101040.19;5007376;28;20056;-70
2022/04/10 07:07:56;;;;;;;7.47;5.13;;;;;;;3.80;83.67;101044.94;5009345;28;20042;-70
2022/04/10 07:10:22;;;;;;;7.60;5.45;;;;;;;3.90;83.47;101051.25;5006489;28;20045;-70
2022/04/10 07:12:47;;;;;;;6.85;4.53;;;;;;;3.93;83.36;101048.47;5007939;28;20061;-70
2022/04/10 07:15:13;;;;;;;6.03;3.85;;;;;;;4.09;83.93;101063.19;5008366;28;20057;-70
2022/04/10 07:17:38;;;;;;;7.13;5.63;;;;;;;4.19;83.41;101062.50;5007182;28;20113;-70
2022/04/10 07:20:04;;;;;;;6.63;4.95;;;;;;;4.32;83.32;101059.13;5007575;28;20037;-71
2022/04/10 07:25:13;;;;;;;6.78;4.45;;;;;;;4.61;82.78;101065.91;5007745;28;20048;-70
2022/04/10 07:27:38;;;;;;;6.40;3.95;;;;;;;4.60;82.88;101069.50;5007553;28;20495;-70
2022/04/10 07:30:04;;;;;;;9.45;5.50;;;;;;;4.57;82.78;101082.78;5003431;28;20033;-70
2022/04/10 07:32:30;;;;;;;8.15;5.85;;;;;;;4.46;82.70;101080.84;4989743;28;20046;-70
2022/04/10 07:34:55;;;;;;;8.85;5.90;;;;;;;4.36;82.35;101073.69;5009898;28;20030;-70
2022/04/10 07:37:21;;;;;;;12.45;6.43;;;;;;;4.25;82.44;101079.63;5007330;28;20053;-70
2022/04/10 07:39:46;;;;;;;9.25;6.00;;;;;;;4.09;82.70;101081.50;5006129;28;20034;-70
2022/04/10 07:42:11;;;;;;;8.73;6.10;;;;;;;3.95;82.90;101096.28;5007146;28;20592;-71
2022/04/10 07:44:36;;;;;;;8.80;6.18;;;;;;;3.91;83.12;101099.19;5007012;28;20502;-71
2022/04/10 07:49:47;;;;;;;6.30;4.47;;;;;;;3.87;82.90;101106.41;5006362;28;20040;-71
2022/04/10 07:52:13;;;;;;;8.85;5.55;;;;;;;3.76;84.40;101116.66;5006934;28;20129;-71
2022/04/10 07:54:39;;;;;;;10.07;5.82;;;;;;;3.66;85.20;101123.41;5007197;28;20129;-71
2022/04/10 07:57:05;;;;;;;9.00;5.10;;;;;;;3.46;84.62;101125.44;5006985;28;20433;-70
2022/04/10 07:59:30;;;;;;;8.70;4.20;;;;;;;3.37;84.96;101125.97;5006773;28;20042;-71
2022/04/10 08:01:55;;;;;;;6.13;3.85;;;;;;;3.25;85.14;101124.94;5003934;28;20038;-71
2022/04/10 08:04:20;;;;;;;6.80;3.70;;;;;;;3.16;85.82;101128.91;4988471;28;20045;-72
2022/04/10 08:06:46;;;;;;;8.40;4.63;;;;;;;2.99;85.61;101134.28;5005895;28;20038;-71
2022/04/10 08:09:11;;;;;;;6.93;3.83;;;;;;;2.88;85.75;101124.41;5007708;28;20038;-71
2022/04/10 08:11:36;;;;;;;7.47;4.72;;;;;;;2.93;85.73;101138.09;5005502;28;21533;-71
2022/04/10 08:14:02;;;;;;;7.45;5.00;;;;;;;3.02;85.64;101130.66;5006968;28;20030;-71
2022/04/10 08:16:27;;;;;;;5.93;4.22;;;;;;;3.10;85.37;101136.25;5005931;28;20042;-71
2022/04/10 08:18:53;;;;;;;5.03;3.47;;;;;;;3.20;85.17;101147.88;5007054;28;20038;-71
2022/04/10 08:21:20;;;;;;;6.10;4.00;;;;;;;3.15;84.92;101142.09;4988838;28;20466;-71
2022/04/10 08:23:45;;;;;;;9.27;5.38;;;;;;;2.98;85.47;101140.44;5008756;28;20030;-72
2022/04/10 08:26:10;;;;;;;7.75;5.35;;;;;;;2.87;85.82;101148.03;5009686;28;20042;-71
2022/04/10 08:28:35;;;;;;;7.35;4.72;;;;;;;2.83;85.84;101141.28;5008431;28;20053;-71
2022/04/10 08:31:01;;;;;;;8.82;5.00;;;;;;;2.82;85.58;101143.06;5010450;28;20080;-71
2022/04/10 08:33:26;;;;;;;12.32;5.90;;;;;;;2.75;85.67;101152.19;5007059;28;20033;-71
2022/04/10 08:35:51;;;;;;;8.18;5.38;;;;;;;2.59;86.08;101148.75;5006433;28;20494;-71
2022/04/10 08:38:17;;;;;;;10.25;5.45;;;;;;;2.64;86.16;101144.09;4988212;28;20041;-71
2022/04/10 08:40:45;;;;;;;9.13;5.63;;;;;;;2.73;86.07;101143.59;5005166;28;20048;-71
2022/04/10 08:43:10;;;;;;;9.38;5.40;;;;;;;2.67;86.38;101147.41;4989611;28;20046;-71
2022/04/10 08:45:39;;;;;;;9.75;5.93;;;;;;;2.84;86.08;101145.59;5004956;28;20045;-71
2022/04/10 08:48:04;;;;;;;8.23;5.43;;;;;;;2.81;86.58;101143.16;5002880;28;20590;-71
2022/04/10 08:50:30;;;;;;;8.23;5.00;;;;;;;2.93;86.49;101145.06;5004948;28;20109;-71
2022/04/10 08:52:57;;;;;;;10.82;6.07;;;;;;;3.10;86.59;101142.34;5006322;28;20125;-71
2022/04/10 08:55:22;;;;;;;10.68;6.40;;;;;;;3.19;86.44;101138.34;5005816;28;20076;-71
2022/04/10 08:57:48;;;;;;;10.95;5.90;;;;;;;3.26;86.09;101134.44;5008332;28;20038;-71
2022/04/10 09:00:15;;;;;;;10.63;6.28;;;;;;;3.19;86.44;101140.94;5008979;28;20034;-71
2022/04/10 09:02:49;;;;;;;9.18;6.13;;;;;;;3.14;86.20;101141.22;4998389;28;20030;-71
2022/04/10 09:05:19;;;;;;;9.40;5.53;;;;;;;3.18;86.44;101134.88;5009459;28;20034;-71
2022/04/10 09:08:11;;;;;;;9.60;5.72;;;;;;;3.33;86.42;101150.59;5009146;28;20026;-71
2022/04/10 09:10:58;;;;;;;8.70;5.47;;;;;;;3.60;85.93;101146.38;4997218;28;20446;-71
2022/04/10 09:13:25;;;;;;;6.88;4.80;;;;;;;3.66;85.30;101154.78;5009066;28;20118;-73
2022/04/10 09:15:51;;;;;;;7.45;4.22;;;;;;;3.64;85.25;101157.47;5013228;28;20194;-70
2022/04/10 09:18:17;;;;;;;6.63;3.92;;;;;;;3.66;85.50;101162.63;5013075;28;20038;-71
2022/04/10 09:20:42;;;;;;;5.65;3.72;;;;;;;3.68;85.53;101164.22;5013175;28;20038;-71
2022/04/10 09:23:08;;;;;;;7.60;5.07;;;;;;;3.56;85.38;101157.09;5015184;28;20029;-71
2022/04/10 09:25:42;;;;;;;7.63;5.47;;;;;;;3.77;85.85;101147.97;5007699;28;20037;-73
2022/04/10 09:28:08;;;;;;;7.10;4.68;;;;;;;4.19;85.66;101164.59;5010736;28;20035;-71
2022/04/10 09:30:35;;;;;;;9.38;4.90;;;;;;;4.58;85.09;101157.81;5013599;28;20347;-71
2022/04/10 09:33:01;;;;;;;6.88;4.50;;;;;;;4.93;84.52;101154.69;5013615;28;20045;-73
2022/04/10 09:35:41;;;;;;;7.65;4.75;;;;;;;4.98;84.42;101152.63;5009516;28;20037;-73
2022/04/10 09:38:06;;;;;;;8.68;5.03;;;;;;;5.07;84.64;101151.16;5006908;28;20108;-73
2022/04/10 09:40:33;;;;;;;9.57;5.72;;;;;;;5.45;84.24;101174.81;5008168;28;20053;-73
2022/04/10 09:43:04;;;;;;;6.75;4.18;;;;;;;5.58;84.21;101153.88;5011592;28;20436;-73
2022/04/10 09:45:34;;;;;;;;;;;;;;;5.67;83.58;101153.25;4996315;28;20478;-73
2022/04/10 09:48:29;;;;;;;7.75;5.55;;;;;;;5.87;83.22;101164.16;5008851;28;20015;-73
2022/04/10 09:51:00;;;;;;;7.43;5.38;;;;;;;5.91;82.87;101166.47;5010742;28;20046;-73
2022/04/10 09:53:29;;;;;;;7.93;4.80;;;;;;;5.99;82.74;101152.84;5008210;28;20046;-73
2022/04/10 09:56:05;;;;;;;6.15;4.70;;;;;;;6.15;82.90;101153.47;5011365;28;20030;-73
2022/04/10 09:58:31;;;;;;;5.53;4.40;;;;;;;6.11;82.47;101165.13;5001669;28;20103;-72
2022/04/10 10:00:59;;;;;;;5.63;4.32;;;;;;;5.90;83.11;101163.94;5009042;28;20036;-73
2022/04/10 10:03:30;;;;;;;5.57;4.40;;;;;;;5.65;82.62;101170.03;4995019;28;20022;-73
2022/04/10 10:05:58;;;;;;;7.03;4.72;;;;;;;4.90;82.42;101162.75;5012952;28;20030;-72
2022/04/10 10:08:24;;;;;;;7.55;5.38;;;;;;;4.30;84.57;101155.25;5012837;28;20044;-72
2022/04/10 10:10:50;;;;;;;8.30;5.03;;;;;;;4.34;84.67;101160.19;5012614;28;20128;-72
2022/04/10 10:13:16;;;;;;;5.80;4.13;;;;;;;4.56;84.50;101161.47;5012502;28;20459;-73
2022/04/10 10:15:44;;;;;;;5.30;4.15;;;;;;;4.72;83.96;101162.16;5012624;28;20046;-73
2022/04/10 10:18:11;;;;;;;6.88;4.35;;;;;;;4.81;83.81;101161.56;5011811;28;20042;-73
2022/04/10 10:20:38;;;;;;;8.68;6.25;;;;;;;4.89;83.50;101161.91;5008886;28;20398;-73
2022/04/10 10:23:08;;;;;;;8.68;6.97;;;;;;;4.84;83.78;101153.50;5010329;28;20546;-73
2022/04/10 10:25:52;;;;;;;11.38;9.13;;;;;;;4.81;84.11;101145.00;5008571;28;20137;-73
2022/04/10 10:28:36;;;;;;;10.25;8.20;;;;;;;5.30;83.97;101145.22;5009199;28;20422;-73
2022/04/10 10:31:19;;;;;;;10.75;8.02;;;;;;;5.78;83.08;101138.56;5007306;28;20037;-73
2022/04/10 10:33:57;;;;;;;14.50;9.50;;;;;;;5.71;82.35;101132.88;5009537;28;20046;-73
2022/04/10 10:36:27;;;;;;;12.80;9.70;;;;;;;6.19;82.48;101134.84;4991935;28;20084;-73
2022/04/10 10:38:55;;;;;;;10.45;8.38;;;;;;;6.64;82.02;101143.03;5009266;28;20084;-73
2022/04/10 10:41:20;;;;;;;11.75;8.93;;;;;;;7.05;80.75;101136.50;5007079;28;20603;-73
2022/04/10 10:43:46;;;;;;;10.18;8.50;;;;;;;7.44;79.08;101136.16;5007428;28;20355;-73
2022/04/10 10:46:28;;;;;;;13.38;9.27;;;;;;;7.79;77.83;101143.13;5006803;28;20048;-73
2022/04/10 10:49:14;;;;;;;10.02;7.45;;;;;;;8.07;76.17;101146.25;4993173;28;20522;-73
2022/04/10 10:51:42;;;;;;;8.18;6.70;;;;;;;8.30;76.05;101134.75;5010137;28;20054;-73
2022/04/10 10:54:11;;;;;;;9.50;7.55;;;;;;;8.06;76.08;101149.88;5008016;28;20080;-73
2022/04/10 10:56:39;;;;;;;9.18;7.95;;;;;;;7.88;77.03;101141.59;5006081;28;20507;-73
2022/04/10 10:59:29;;;;;;;9.98;7.40;;;;;;;7.83;76.56;101149.84;5007293;28;20349;-73
2022/04/10 11:02:01;;;;;;;9.00;6.93;;;;;;;7.81;76.28;101145.66;5006830;28;20487;-73
2022/04/10 11:04:28;;;;;;;10.48;8.32;;;;;;;7.58;75.59;101144.78;5007986;28;20529;-73
2022/04/10 11:06:54;;;;;;;10.45;8.27;;;;;;;7.44;75.89;101146.69;4992782;28;20054;-73
2022/04/10 11:09:30;;;;;;;9.60;7.55;;;;;;;7.51;75.95;101141.78;5008919;28;20048;-73
2022/04/10 11:12:00;;;;;;;9.13;7.85;;;;;;;7.72;76.16;101131.41;5008087;28;20057;-73
2022/04/10 11:14:41;;;;;;;9.25;6.95;;;;;;;7.75;75.83;101130.34;4990429;28;20054;-73
2022/04/10 11:17:09;;;;;;;7.63;6.03;;;;;;;8.25;76.12;101129.00;5006590;28;20030;-73
2022/04/10 11:19:35;;;;;;;7.20;5.53;;;;;;;10.12;74.82;101122.31;5008731;28;20038;-73
2022/04/10 11:22:01;;;;;;;6.95;5.53;;;;;;;12.60;69.76;101127.63;5002609;28;20033;-72
2022/04/10 11:24:27;;;;;;;5.07;3.80;;;;;;;15.15;65.52;101124.50;5006469;28;20038;-72
2022/04/10 11:26:52;;;;;;;7.68;5.78;;;;;;;17.38;59.07;101130.31;5006656;28;20104;-72
2022/04/10 11:29:20;;;;;;;7.57;5.30;;;;;;;18.20;51.25;101129.41;5003146;28;20523;-72
2022/04/10 11:31:52;;;;;;;6.78;4.80;;;;;;;18.92;49.52;101121.56;5005864;28;20091;-73
2022/04/10 11:34:28;;;;;;;6.07;4.50;;;;;;;20.06;47.59;101116.78;5006794;28;20189;-73
2022/04/10 11:36:56;;;;;;;6.03;4.50;;;;;;;20.18;44.40;101117.03;5005795;28;20045;-72